Aérodrome :
LOGIN :

S'inscrire | Disclaimer

   EN    FR    IT 

 










Légende :    VFR   VFR Marginal   IFR   IFR Intensif   IFR Très Intensif
Visi : 
Plafond : 
>= 8 km
>= 3000ft
5 à 8 km
1000 à 3000 ft
1500m à 5 km
500 à 1000 ft
800 à 1500m
200 à 500 ft
< 800m
< 200 ft
Symboles :   Orages  Brouillard  Fortes neiges  Fortes précipitations  Vent > 20 kt
SIGMETs :   Divers  Orages  Givrage  Turbulence  Onde Orograph.  Cendres Volcan.







- Altitude de l'aérodrome : 13 ft
- Code IATA : CEQ
- Voir les cartes d'approche


LFMD - Cannes Mandelieu

DERNIER METAR :
  • 180100Z AUTO 36004KT 330V040 CAVOK 01/M04 Q1024

METARs EXPIRÉS :
  • 180030Z AUTO 35003KT 310V040 CAVOK 01/M04 Q1024
  • 180000Z AUTO 36005KT 300V040 CAVOK 02/M04 Q1024
  • 172330Z AUTO 36004KT 320V040 CAVOK 01/M03 Q1024
  • 172300Z AUTO 36005KT 330V040 CAVOK 01/M03 Q1024
  • 172230Z AUTO 35004KT 320V030 CAVOK 02/M03 Q1024

TAF AMD TAF LFMD
Valide du 17 à 18h jusqu'au 18 à 15h UTC


171809Z 1718/1815 34008KT 9999 FEW030
BECMG 1810/1812 08010KT FEW030 BKN090
ATIS : +33 4 93 48 73 23
Pas de NOTAMs connus pour ce terrain.



MET'MAP, la Météo Aéronautique d'un coup d'oeil ! - Copyright ORBIFLY Décembre 2007 - Disclaimer

ORBIFLY MET'MAP TEAM :

Programmation & Développement : Alexandra Zaïnal
Conception & Développement : Baudouin d'Aumeries
Co-Programmation & Développement : Marc-Olivier Méhu
Soutien technique & logistique : Manuel Goepfert

Contact : metmap@orbifly.com




SOURCES & CREDITS :

   NOAA